createdAt,value
2018-12-12T00:00:00.897Z,4.97
2018-12-12T00:02:30.140Z,4.60
2018-12-12T00:04:59.324Z,3.90
2018-12-12T00:07:28.680Z,4.23
2018-12-12T00:09:57.858Z,4.20
2018-12-12T00:12:27.000Z,4.33
2018-12-12T00:14:56.219Z,4.63
2018-12-12T00:17:25.333Z,4.20
2018-12-12T00:19:54.528Z,4.20
2018-12-12T00:22:23.670Z,4.60
2018-12-12T00:24:52.833Z,4.93
2018-12-12T00:27:22.004Z,5.33
2018-12-12T00:29:51.191Z,4.73
2018-12-12T00:32:20.295Z,5.50
2018-12-12T00:34:49.434Z,4.50
2018-12-12T00:37:18.624Z,4.90
2018-12-12T00:39:47.853Z,4.30
2018-12-12T00:42:17.863Z,4.60
2018-12-12T00:44:47.313Z,5.00
2018-12-12T00:47:16.627Z,4.97
2018-12-12T00:49:45.815Z,5.17
2018-12-12T00:52:14.972Z,5.37
2018-12-12T00:54:44.508Z,7.13
2018-12-12T00:57:13.663Z,5.30
2018-12-12T00:59:43.146Z,5.03
2018-12-12T01:02:12.500Z,5.33
2018-12-12T01:04:41.668Z,6.33
2018-12-12T01:07:10.840Z,5.63
2018-12-12T01:09:40.020Z,6.03
2018-12-12T01:12:12.612Z,5.70
2018-12-12T01:14:41.882Z,5.57
2018-12-12T01:17:11.035Z,5.43
2018-12-12T01:19:40.202Z,5.27
2018-12-12T01:22:09.401Z,6.23
2018-12-12T01:24:38.583Z,6.43
2018-12-12T01:27:07.728Z,7.17
2018-12-12T01:29:36.920Z,7.10
2018-12-12T01:32:06.165Z,6.67
2018-12-12T01:34:35.459Z,6.70
2018-12-12T01:37:04.731Z,6.47
2018-12-12T01:39:33.939Z,6.50
2018-12-12T01:42:03.164Z,5.93
2018-12-12T01:44:32.317Z,6.73
2018-12-12T01:47:01.524Z,6.20
2018-12-12T01:49:30.643Z,6.50
2018-12-12T01:51:59.836Z,6.07
2018-12-12T01:54:29.028Z,6.27
2018-12-12T01:56:58.199Z,6.10
2018-12-12T01:59:27.372Z,5.77
2018-12-12T02:01:56.516Z,5.80
2018-12-12T02:04:25.752Z,6.20
2018-12-12T02:06:54.862Z,6.13
2018-12-12T02:09:24.046Z,6.67
2018-12-12T02:11:53.255Z,6.37
2018-12-12T02:14:22.448Z,6.40
2018-12-12T02:16:51.639Z,5.90
2018-12-12T02:19:20.988Z,6.17
2018-12-12T02:21:50.223Z,6.00
2018-12-12T02:24:19.372Z,6.20
2018-12-12T02:26:48.614Z,6.40
2018-12-12T02:29:17.747Z,6.90
2018-12-12T02:31:46.962Z,6.40
2018-12-12T02:34:16.107Z,6.80
2018-12-12T02:36:45.288Z,7.13
2018-12-12T02:39:14.528Z,6.00
2018-12-12T02:41:43.666Z,6.50
2018-12-12T02:44:12.769Z,7.60
2018-12-12T02:46:41.936Z,6.87
2018-12-12T02:49:11.128Z,7.60
2018-12-12T02:51:40.348Z,7.57
2018-12-12T02:54:09.516Z,7.10
2018-12-12T02:56:38.730Z,6.50
2018-12-12T02:59:07.915Z,6.27
2018-12-12T03:01:37.134Z,6.83
2018-12-12T03:04:06.312Z,7.13
2018-12-12T03:06:35.479Z,6.40
2018-12-12T03:09:07.218Z,8.07
2018-12-12T03:11:36.403Z,6.93
2018-12-12T03:14:05.587Z,7.50
2018-12-12T03:16:34.758Z,6.83
2018-12-12T03:19:03.894Z,6.47
2018-12-12T03:21:33.059Z,7.47
2018-12-12T03:24:02.197Z,7.57
2018-12-12T03:26:31.403Z,6.97
2018-12-12T03:29:00.535Z,6.23
2018-12-12T03:31:29.699Z,7.00
2018-12-12T03:33:58.855Z,7.03
2018-12-12T03:36:28.041Z,6.23
2018-12-12T03:38:57.289Z,6.97
2018-12-12T03:41:26.542Z,5.73
2018-12-12T03:43:55.851Z,5.70
2018-12-12T03:46:25.084Z,6.23
2018-12-12T03:48:54.298Z,6.63
2018-12-12T03:51:23.470Z,6.00
2018-12-12T03:53:52.546Z,6.57
2018-12-12T03:56:21.674Z,5.50
2018-12-12T03:58:50.790Z,6.20
2018-12-12T04:01:19.963Z,5.70
2018-12-12T04:03:49.355Z,6.73
2018-12-12T04:06:18.573Z,5.50
2018-12-12T04:08:47.724Z,6.30
2018-12-12T04:11:16.952Z,6.07
2018-12-12T04:13:46.103Z,5.80
2018-12-12T04:16:15.603Z,6.33
2018-12-12T04:18:44.787Z,5.60
2018-12-12T04:21:14.077Z,6.10
2018-12-12T04:23:43.240Z,5.50
2018-12-12T04:26:12.428Z,5.33
2018-12-12T04:28:41.555Z,6.27
2018-12-12T04:31:10.732Z,5.43
2018-12-12T04:33:40.009Z,6.10
2018-12-12T04:36:09.320Z,5.47
2018-12-12T04:38:38.484Z,6.60
2018-12-12T04:41:07.691Z,5.87
2018-12-12T04:43:36.901Z,6.00
2018-12-12T04:46:06.057Z,6.50
2018-12-12T04:48:35.346Z,5.50
2018-12-12T04:51:04.580Z,6.20
2018-12-12T04:53:33.916Z,4.80
2018-12-12T04:56:02.962Z,5.20
2018-12-12T04:58:32.163Z,5.00
2018-12-12T05:01:01.398Z,5.60
2018-12-12T05:03:30.606Z,5.10
2018-12-12T05:05:59.888Z,5.33
2018-12-12T05:08:29.029Z,5.50
2018-12-12T05:10:58.300Z,5.83
2018-12-12T05:13:27.431Z,5.33
2018-12-12T05:15:56.583Z,5.97
2018-12-12T05:18:25.751Z,4.80
2018-12-12T05:20:55.079Z,5.40
2018-12-12T05:23:24.248Z,4.90
2018-12-12T05:25:53.438Z,5.07
2018-12-12T05:28:22.732Z,5.30
2018-12-12T05:30:51.978Z,4.70
2018-12-12T05:33:21.069Z,4.93
2018-12-12T05:35:50.267Z,5.40
2018-12-12T05:38:19.433Z,5.47
2018-12-12T05:40:48.791Z,5.27
2018-12-12T05:43:18.012Z,5.33
2018-12-12T05:45:47.230Z,6.43
2018-12-12T05:48:16.347Z,5.97
2018-12-12T05:50:45.565Z,5.90
2018-12-12T05:53:14.773Z,5.63
2018-12-12T05:55:43.935Z,5.20
2018-12-12T05:58:13.157Z,5.37
2018-12-12T06:00:42.384Z,5.20
2018-12-12T06:03:11.553Z,5.90
2018-12-12T06:05:40.745Z,5.83
2018-12-12T06:08:09.974Z,5.33
2018-12-12T06:10:39.175Z,5.57
2018-12-12T06:13:08.315Z,6.03
2018-12-12T06:15:37.562Z,5.70
2018-12-12T06:18:06.746Z,5.27
2018-12-12T06:20:35.947Z,5.70
2018-12-12T06:23:05.136Z,6.10
2018-12-12T06:25:34.350Z,5.20
2018-12-12T06:28:03.876Z,6.43
2018-12-12T06:30:33.031Z,4.93
2018-12-12T06:33:02.168Z,5.90
2018-12-12T06:35:31.352Z,6.60
2018-12-12T06:38:00.558Z,6.37
2018-12-12T06:40:29.748Z,5.87
2018-12-12T06:42:58.893Z,5.60
2018-12-12T06:45:28.088Z,6.80
2018-12-12T06:47:57.223Z,8.07
2018-12-12T06:50:26.525Z,13.60
2018-12-12T06:52:55.709Z,10.90
2018-12-12T06:55:24.924Z,9.70
2018-12-12T06:57:54.107Z,6.37
2018-12-12T07:00:23.315Z,6.63
2018-12-12T07:02:52.483Z,6.70
2018-12-12T07:05:21.718Z,6.40
2018-12-12T07:07:50.848Z,6.47
2018-12-12T07:10:20.032Z,6.17
2018-12-12T07:12:49.225Z,6.43
2018-12-12T07:15:18.424Z,5.77
2018-12-12T07:17:47.587Z,6.10
2018-12-12T07:20:16.790Z,5.60
2018-12-12T07:22:45.928Z,6.37
2018-12-12T07:25:15.056Z,6.10
2018-12-12T07:27:44.221Z,6.10
2018-12-12T07:30:13.406Z,7.13
2018-12-12T07:32:42.604Z,6.80
2018-12-12T07:35:11.896Z,5.93
2018-12-12T07:37:41.249Z,6.10
2018-12-12T07:40:10.448Z,7.43
2018-12-12T07:42:39.608Z,7.00
2018-12-12T07:45:08.920Z,6.20
2018-12-12T07:47:38.105Z,5.93
2018-12-12T07:50:07.759Z,7.57
2018-12-12T07:52:36.895Z,6.40
2018-12-12T07:55:06.100Z,6.80
2018-12-12T07:57:35.228Z,6.60
2018-12-12T08:00:05.312Z,6.20
2018-12-12T08:02:34.585Z,7.90
2018-12-12T08:05:04.279Z,7.13
2018-12-12T08:07:33.542Z,7.30
2018-12-12T08:10:02.735Z,7.70
2018-12-12T08:12:32.002Z,6.90
2018-12-12T08:15:01.228Z,7.40
2018-12-12T08:17:30.391Z,7.60
2018-12-12T08:19:59.508Z,6.77
2018-12-12T08:22:28.709Z,6.93
2018-12-12T08:24:57.896Z,7.60
2018-12-12T08:27:27.180Z,7.30
2018-12-12T08:29:56.359Z,8.47
2018-12-12T08:32:25.565Z,6.73
2018-12-12T08:34:54.678Z,7.43
2018-12-12T08:37:23.877Z,6.93
2018-12-12T08:39:53.020Z,6.13
2018-12-12T08:42:22.335Z,5.97
2018-12-12T08:44:51.503Z,6.63
2018-12-12T08:47:20.742Z,6.43
2018-12-12T08:49:49.960Z,5.70
2018-12-12T08:52:19.288Z,6.17
2018-12-12T08:54:48.508Z,6.00
2018-12-12T08:57:18.359Z,5.30
2018-12-12T08:59:47.481Z,6.53
2018-12-12T09:02:16.685Z,6.10
2018-12-12T09:04:45.849Z,5.97
2018-12-12T09:07:15.089Z,6.83
2018-12-12T09:09:44.342Z,6.10
2018-12-12T09:12:13.503Z,6.10
2018-12-12T09:14:42.737Z,6.93
2018-12-12T09:17:11.886Z,5.90
2018-12-12T09:19:41.031Z,5.97
2018-12-12T09:22:10.229Z,6.77
2018-12-12T09:24:39.459Z,6.50
2018-12-12T09:27:08.637Z,7.07
2018-12-12T09:29:37.743Z,5.50
2018-12-12T09:32:06.964Z,6.57
2018-12-12T09:34:36.173Z,6.23
2018-12-12T09:37:05.411Z,7.00
2018-12-12T09:39:34.608Z,5.83
2018-12-12T09:42:03.820Z,6.57
2018-12-12T09:44:33.074Z,5.87
2018-12-12T09:47:02.531Z,6.90
2018-12-12T09:49:31.698Z,7.17
2018-12-12T09:52:00.915Z,6.60
2018-12-12T09:54:30.056Z,7.73
2018-12-12T09:56:59.275Z,6.47
2018-12-12T09:59:28.391Z,6.37
2018-12-12T10:01:57.544Z,6.90
2018-12-12T10:04:26.728Z,7.20
2018-12-12T10:06:55.816Z,6.60
2018-12-12T10:09:25.217Z,6.37
2018-12-12T10:11:54.636Z,7.00
2018-12-12T10:14:23.819Z,7.27
2018-12-12T10:16:53.040Z,6.40
2018-12-12T10:19:22.234Z,6.37
2018-12-12T10:21:51.776Z,6.13
2018-12-12T10:24:21.376Z,6.87
2018-12-12T10:26:50.520Z,6.60
2018-12-12T10:29:19.958Z,7.90
2018-12-12T10:31:49.144Z,6.87
2018-12-12T10:34:18.362Z,6.90
2018-12-12T10:36:47.517Z,6.30
2018-12-12T10:39:16.640Z,6.00
2018-12-12T10:41:46.001Z,7.53
2018-12-12T10:44:15.132Z,6.00
2018-12-12T10:46:44.412Z,6.17
2018-12-12T10:49:13.677Z,6.60
2018-12-12T10:51:42.936Z,6.87
2018-12-12T10:54:12.079Z,6.23
2018-12-12T10:56:41.222Z,6.90
2018-12-12T10:59:10.437Z,7.17
2018-12-12T11:01:44.977Z,7.67
2018-12-12T11:04:14.126Z,6.40
2018-12-12T11:06:43.356Z,6.97
2018-12-12T11:09:12.520Z,7.50
2018-12-12T11:11:41.704Z,6.87
2018-12-12T11:14:10.943Z,6.07
2018-12-12T11:16:40.122Z,5.73
2018-12-12T11:19:09.330Z,5.70
2018-12-12T11:21:38.453Z,5.70
2018-12-12T11:24:07.581Z,6.00
2018-12-12T11:26:36.792Z,6.60
2018-12-12T11:29:05.987Z,5.93
2018-12-12T11:31:35.493Z,5.20
2018-12-12T11:34:04.632Z,5.50
2018-12-12T11:36:33.804Z,5.80
2018-12-12T11:39:03.200Z,4.87
2018-12-12T11:41:32.346Z,5.60
2018-12-12T11:44:01.413Z,6.70
2018-12-12T11:46:30.595Z,5.70
2018-12-12T11:48:59.741Z,4.97
2018-12-12T11:51:28.979Z,5.67
2018-12-12T11:53:58.124Z,5.80
2018-12-12T11:56:27.339Z,4.90
2018-12-12T11:58:56.502Z,5.23
2018-12-12T12:01:25.665Z,6.07
2018-12-12T12:03:56.846Z,6.20
2018-12-12T12:06:26.119Z,6.00
2018-12-12T12:08:55.286Z,5.93
2018-12-12T12:11:24.436Z,6.50
2018-12-12T12:13:53.656Z,5.50
2018-12-12T12:16:22.896Z,6.13
2018-12-12T12:18:52.100Z,6.70
2018-12-12T12:21:21.306Z,6.70
2018-12-12T12:23:50.504Z,6.83
2018-12-12T12:26:19.787Z,6.93
2018-12-12T12:28:49.007Z,7.67
2018-12-12T12:31:19.568Z,6.73
2018-12-12T12:33:48.719Z,7.20
2018-12-12T12:36:17.954Z,7.53
2018-12-12T12:38:47.130Z,7.40
2018-12-12T12:41:16.195Z,7.53
2018-12-12T12:43:45.313Z,7.77
2018-12-12T12:46:14.415Z,7.03
2018-12-12T12:48:50.064Z,8.47
2018-12-12T12:51:19.293Z,7.53
2018-12-12T12:53:48.387Z,7.33
2018-12-12T12:56:17.560Z,7.80
2018-12-12T12:58:46.695Z,8.80
2018-12-12T13:01:16.032Z,8.03
2018-12-12T13:03:45.183Z,7.23
2018-12-12T13:06:14.386Z,7.57
2018-12-12T13:08:43.568Z,8.50
2018-12-12T13:11:14.956Z,8.83
2018-12-12T13:13:43.900Z,7.40
2018-12-12T13:16:13.078Z,7.73
2018-12-12T13:18:42.150Z,7.53
2018-12-12T13:21:11.326Z,6.80
2018-12-12T13:23:47.177Z,8.47
2018-12-12T13:26:16.383Z,7.93
2018-12-12T13:28:45.580Z,7.67
2018-12-12T13:31:14.684Z,7.83
2018-12-12T13:33:43.886Z,6.47
2018-12-12T13:36:13.043Z,7.80
2018-12-12T13:38:42.300Z,6.67
2018-12-12T13:41:11.513Z,6.67
2018-12-12T13:43:40.747Z,6.17
2018-12-12T13:46:09.984Z,6.93
2018-12-12T13:48:39.208Z,7.07
2018-12-12T13:51:08.392Z,6.33
2018-12-12T13:53:37.546Z,7.80
2018-12-12T13:56:06.774Z,6.80
2018-12-12T13:58:35.971Z,6.33
2018-12-12T14:01:05.143Z,7.67
2018-12-12T14:03:34.449Z,7.07
2018-12-12T14:06:03.758Z,7.83
2018-12-12T14:08:33.003Z,7.17
2018-12-12T14:11:02.203Z,6.13
2018-12-12T14:13:31.416Z,6.90
2018-12-12T14:16:00.561Z,6.83
2018-12-12T14:18:29.882Z,7.60
2018-12-12T14:20:59.015Z,8.00
2018-12-12T14:23:28.195Z,7.60
2018-12-12T14:25:57.314Z,7.80
2018-12-12T14:28:26.516Z,7.07
2018-12-12T14:30:55.756Z,8.17
2018-12-12T14:33:24.919Z,7.10
2018-12-12T14:35:54.148Z,8.30
2018-12-12T14:38:23.322Z,7.70
2018-12-12T14:40:52.506Z,7.03
2018-12-12T14:43:21.720Z,7.20
2018-12-12T14:45:50.912Z,8.77
2018-12-12T14:48:20.084Z,9.00
2018-12-12T14:50:49.257Z,9.03
2018-12-12T14:53:18.432Z,8.20
2018-12-12T14:55:47.593Z,7.70
2018-12-12T14:58:16.840Z,9.60
2018-12-12T15:00:46.039Z,7.17
2018-12-12T15:03:15.282Z,7.10
2018-12-12T15:05:44.547Z,7.20
2018-12-12T15:08:13.673Z,6.97
2018-12-12T15:10:42.924Z,4.50
2018-12-12T15:13:12.080Z,4.37
2018-12-12T15:15:41.268Z,3.63
2018-12-12T15:18:10.465Z,4.43
2018-12-12T15:20:39.718Z,3.80
2018-12-12T15:23:08.955Z,4.53
2018-12-12T15:25:38.206Z,5.07
2018-12-12T15:28:07.401Z,4.20
2018-12-12T15:30:36.609Z,4.07
2018-12-12T15:33:05.853Z,4.03
2018-12-12T15:35:35.091Z,4.03
2018-12-12T15:38:04.360Z,3.97
2018-12-12T15:40:33.654Z,3.20
2018-12-12T15:43:02.914Z,3.00
2018-12-12T15:45:32.448Z,2.53
2018-12-12T15:48:01.638Z,1.90
2018-12-12T15:50:31.870Z,2.20
2018-12-12T15:53:01.291Z,1.97
2018-12-12T15:55:30.445Z,2.10
2018-12-12T15:57:59.620Z,1.47
2018-12-12T16:00:29.308Z,1.70
2018-12-12T16:02:58.728Z,2.10
2018-12-12T16:05:27.985Z,2.60
2018-12-12T16:07:57.198Z,2.30
2018-12-12T16:10:26.516Z,3.10
2018-12-12T16:12:55.687Z,3.63
2018-12-12T16:15:24.865Z,3.10
2018-12-12T16:17:54.146Z,3.30
2018-12-12T16:20:23.361Z,2.70
2018-12-12T16:22:52.459Z,4.00
2018-12-12T16:25:21.669Z,6.10
2018-12-12T16:27:52.275Z,6.27
2018-12-12T16:30:21.609Z,3.47
2018-12-12T16:32:50.849Z,3.40
2018-12-12T16:35:20.023Z,2.77
2018-12-12T16:37:49.233Z,3.90
2018-12-12T16:40:18.496Z,3.77
2018-12-12T16:42:47.832Z,3.07
2018-12-12T16:45:17.052Z,4.47
2018-12-12T16:47:46.216Z,3.63
2018-12-12T16:50:15.427Z,4.03
2018-12-12T16:52:44.628Z,3.87
2018-12-12T16:55:13.888Z,4.50
2018-12-12T16:57:43.100Z,3.97
2018-12-12T17:00:12.392Z,4.40
2018-12-12T17:02:41.612Z,4.47
2018-12-12T17:05:10.989Z,4.77
2018-12-12T17:07:40.270Z,4.03
2018-12-12T17:10:10.796Z,5.10
2018-12-12T17:12:40.377Z,4.50
2018-12-12T17:15:09.744Z,6.60
2018-12-12T17:17:38.958Z,10.00
2018-12-12T17:20:08.869Z,7.63
2018-12-12T17:22:37.971Z,7.53
2018-12-12T17:25:07.303Z,5.60
2018-12-12T17:27:36.668Z,6.00
2018-12-12T17:30:07.848Z,6.40
2018-12-12T17:32:37.120Z,9.60
2018-12-12T17:35:08.938Z,15.27
2018-12-12T17:37:38.782Z,6.80
2018-12-12T17:40:08.035Z,10.50
2018-12-12T17:42:37.325Z,7.70
2018-12-12T17:45:06.673Z,7.30
2018-12-12T17:47:35.903Z,5.60
2018-12-12T17:50:05.965Z,6.70
2018-12-12T17:52:35.202Z,6.00
2018-12-12T17:55:04.512Z,7.33
2018-12-12T17:57:33.711Z,8.37
2018-12-12T18:00:03.360Z,7.80
2018-12-12T18:02:32.589Z,8.67
2018-12-12T18:05:01.884Z,7.80
2018-12-12T18:07:31.301Z,8.20
2018-12-12T18:10:00.501Z,9.73
2018-12-12T18:12:29.844Z,9.90
2018-12-12T18:14:59.068Z,10.03
2018-12-12T18:17:28.368Z,12.30
2018-12-12T18:19:57.624Z,13.10
2018-12-12T18:22:27.080Z,13.47
2018-12-12T18:24:56.260Z,13.90
2018-12-12T18:27:25.553Z,12.83
2018-12-12T18:29:54.684Z,15.23
2018-12-12T18:32:23.804Z,16.40
2018-12-12T18:34:53.086Z,16.17
2018-12-12T18:37:22.353Z,17.33
2018-12-12T18:39:51.627Z,17.97
2018-12-12T18:42:21.224Z,17.83
2018-12-12T18:44:50.436Z,17.10
2018-12-12T18:47:19.629Z,19.07
2018-12-12T18:49:48.867Z,18.73
2018-12-12T18:52:18.126Z,18.90
2018-12-12T18:54:48.242Z,18.77
2018-12-12T18:57:17.541Z,19.13
2018-12-12T18:59:46.763Z,19.40
2018-12-12T19:02:15.997Z,19.93
2018-12-12T19:04:45.202Z,18.03
2018-12-12T19:07:14.343Z,19.03
2018-12-12T19:09:43.555Z,19.50
2018-12-12T19:12:12.771Z,18.70
2018-12-12T19:15:12.795Z,18.50
2018-12-12T19:17:42.016Z,21.03
2018-12-12T19:20:11.298Z,22.40
2018-12-12T19:22:40.483Z,20.87
2018-12-12T19:25:09.978Z,20.40
2018-12-12T19:27:39.169Z,21.37
2018-12-12T19:30:09.403Z,21.07
2018-12-12T19:32:38.657Z,20.77
2018-12-12T19:35:09.905Z,19.23
2018-12-12T19:37:39.299Z,18.27
2018-12-12T19:40:09.272Z,17.13
2018-12-12T19:42:38.520Z,24.30
2018-12-12T19:45:08.775Z,20.17
2018-12-12T19:47:38.539Z,19.10
2018-12-12T19:50:08.736Z,19.77
2018-12-12T19:52:38.227Z,19.50
2018-12-12T19:55:07.526Z,20.30
2018-12-12T19:57:36.757Z,21.10
2018-12-12T20:00:07.036Z,22.03
2018-12-12T20:02:36.426Z,26.30
2018-12-12T20:05:06.313Z,32.00
2018-12-12T20:07:35.481Z,23.90
2018-12-12T20:10:04.976Z,25.77
2018-12-12T20:12:34.154Z,31.13
2018-12-12T20:15:03.346Z,31.90
2018-12-12T20:17:33.557Z,23.20
2018-12-12T20:20:02.979Z,25.63
2018-12-12T20:22:32.135Z,25.23
2018-12-12T20:25:01.333Z,22.80
2018-12-12T20:27:30.516Z,23.13
2018-12-12T20:29:59.651Z,24.63
2018-12-12T20:32:29.029Z,24.70
2018-12-12T20:34:58.220Z,23.70
2018-12-12T20:37:27.489Z,22.30
2018-12-12T20:39:56.672Z,25.67
2018-12-12T20:42:25.892Z,24.63
2018-12-12T20:44:55.089Z,23.00
2018-12-12T20:47:24.292Z,20.33
2018-12-12T20:49:53.492Z,20.33
2018-12-12T20:52:22.639Z,20.93
2018-12-12T20:54:51.875Z,20.23
2018-12-12T20:57:21.145Z,22.40
2018-12-12T20:59:50.415Z,24.80
2018-12-12T21:02:19.752Z,25.80
2018-12-12T21:04:48.961Z,19.07
2018-12-12T21:07:18.173Z,19.20
2018-12-12T21:09:47.476Z,21.43
2018-12-12T21:12:16.751Z,19.20
2018-12-12T21:14:45.920Z,19.87
2018-12-12T21:17:15.238Z,21.07
2018-12-12T21:19:44.413Z,20.90
2018-12-12T21:22:13.604Z,21.60
2018-12-12T21:24:42.773Z,19.73
2018-12-12T21:27:12.033Z,19.50
2018-12-12T21:29:41.199Z,22.17
2018-12-12T21:32:10.427Z,22.20
2018-12-12T21:34:39.626Z,20.63
2018-12-12T21:37:08.848Z,20.73
2018-12-12T21:39:38.052Z,19.93
2018-12-12T21:42:07.244Z,21.70
2018-12-12T21:44:36.576Z,22.77
2018-12-12T21:47:05.818Z,23.33
2018-12-12T21:49:35.154Z,23.00
2018-12-12T21:52:04.433Z,23.23
2018-12-12T21:54:33.644Z,23.27
2018-12-12T21:57:02.836Z,21.90
2018-12-12T21:59:32.064Z,22.60
2018-12-12T22:02:01.401Z,23.60
2018-12-12T22:04:37.060Z,26.20
2018-12-12T22:07:01.884Z,23.53
2018-12-12T22:09:31.184Z,23.17
2018-12-12T22:12:00.295Z,24.90
2018-12-12T22:14:29.461Z,24.77
2018-12-12T22:16:58.715Z,24.13
2018-12-12T22:19:27.896Z,25.17
2018-12-12T22:21:57.104Z,24.07
2018-12-12T22:24:26.381Z,25.47
2018-12-12T22:26:55.604Z,25.87
2018-12-12T22:29:24.829Z,24.80
2018-12-12T22:31:54.204Z,26.00
2018-12-12T22:34:23.407Z,25.97
2018-12-12T22:36:52.584Z,24.83
2018-12-12T22:39:21.761Z,26.67
2018-12-12T22:41:50.895Z,23.57
2018-12-12T22:44:20.092Z,25.93
2018-12-12T22:46:49.374Z,25.00
2018-12-12T22:49:18.571Z,26.90
2018-12-12T22:51:47.759Z,26.03
2018-12-12T22:54:16.980Z,27.03
2018-12-12T22:56:46.236Z,25.97
2018-12-12T22:59:15.427Z,26.53
2018-12-12T23:01:44.705Z,25.27
2018-12-12T23:04:13.795Z,24.97
2018-12-12T23:06:42.957Z,25.67
2018-12-12T23:09:12.404Z,25.33
2018-12-12T23:11:41.581Z,25.10
2018-12-12T23:14:10.761Z,25.70
2018-12-12T23:16:40.022Z,24.90
2018-12-12T23:19:09.215Z,24.47
2018-12-12T23:21:38.452Z,24.17
2018-12-12T23:24:07.664Z,24.37
2018-12-12T23:26:37.082Z,24.70
2018-12-12T23:29:06.346Z,22.80
2018-12-12T23:31:35.576Z,23.37
2018-12-12T23:34:04.772Z,25.77
2018-12-12T23:36:33.938Z,23.97
2018-12-12T23:39:03.792Z,25.23
2018-12-12T23:41:33.006Z,22.80
2018-12-12T23:44:02.165Z,22.33
2018-12-12T23:46:31.358Z,21.80
2018-12-12T23:49:00.582Z,22.57
2018-12-12T23:51:29.732Z,22.90
2018-12-12T23:53:58.922Z,23.43
2018-12-12T23:56:28.060Z,23.70
2018-12-12T23:58:57.295Z,23.30
